Time;durP1;ratioP1;P1;durP2;ratioP2;P2;SDS_P1;SDS_P2;PMS_P1;PMS_P2;Temp;Humidity;BMP_temperature;BMP_pressure;BME280_temperature;BME280_humidity;BME280_pressure;Samples;Min_cycle;Max_cycle;Signal;HPM_P1;HPM_P2
2021/09/01 00:02:12;;;;;;;15.87;11.67;;;13.00;99.90;;;;;;4968544;29;20499;-84
2021/09/01 00:04:39;;;;;;;12.17;10.73;;;13.10;99.90;;;;;;4969803;29;21179;-86
2021/09/01 00:07:06;;;;;;;13.63;12.30;;;13.00;99.90;;;;;;4970674;29;20462;-83
2021/09/01 00:09:33;;;;;;;13.93;12.70;;;13.00;99.90;;;;;;4970383;29;20466;-85
2021/09/01 00:11:59;;;;;;;12.20;11.10;;;13.00;99.90;;;;;;4969778;29;20482;-84
2021/09/01 00:14:26;;;;;;;12.90;11.50;;;13.00;99.90;;;;;;4969670;29;20478;-85
2021/09/01 00:16:53;;;;;;;12.20;11.00;;;13.00;99.90;;;;;;4970265;28;20495;-83
2021/09/01 00:19:21;;;;;;;15.27;13.80;;;13.00;99.90;;;;;;4969546;29;20461;-84
2021/09/01 00:21:48;;;;;;;13.50;12.17;;;12.90;99.90;;;;;;4967608;29;20488;-86
2021/09/01 00:24:16;;;;;;;13.23;11.93;;;12.90;99.90;;;;;;4968214;29;20486;-85
2021/09/01 00:26:43;;;;;;;12.07;10.87;;;12.90;99.90;;;;;;4968115;29;20457;-85
2021/09/01 00:29:11;;;;;;;13.70;12.17;;;12.90;99.90;;;;;;4968308;28;20444;-84
2021/09/01 00:31:38;;;;;;;15.70;14.07;;;12.90;99.90;;;;;;4966313;28;20472;-84
2021/09/01 00:34:05;;;;;;;16.97;12.80;;;12.90;99.90;;;;;;4967055;28;20471;-86
2021/09/01 00:36:33;;;;;;;13.43;11.83;;;12.90;99.90;;;;;;4964686;29;20457;-85
2021/09/01 00:39:00;;;;;;;12.63;11.10;;;12.90;99.90;;;;;;4963265;29;20452;-84
2021/09/01 00:41:58;;;;;;;13.07;11.80;;;12.90;99.90;;;;;;5016988;23;20507;-86
2021/09/01 01:05:13;;;;;;;12.93;11.10;;;12.70;99.90;;;;;;4933203;29;20532;-87
2021/09/01 01:16:57;;;;;;;14.00;12.53;;;12.50;99.90;;;;;;4933659;29;20447;-86
2021/09/01 01:29:47;;;;;;;12.90;11.70;;;12.50;99.90;;;;;;4936413;29;20440;-87
2021/09/01 01:42:14;;;;;;;12.77;11.50;;;12.40;99.90;;;;;;4914332;29;20500;-87
2021/09/01 01:51:22;;;;;;;17.03;12.50;;;12.40;99.90;;;;;;4921223;29;21007;-87
2021/09/01 01:54:08;;;;;;;15.50;13.90;;;12.40;99.90;;;;;;4937350;29;20553;-87
2021/09/01 01:56:37;;;;;;;15.43;13.93;;;12.30;99.90;;;;;;4937973;29;20466;-86
2021/09/01 01:59:34;;;;;;;16.00;13.80;;;12.40;99.90;;;;;;4938286;29;20461;-87
2021/09/01 02:02:03;;;;;;;16.03;13.40;;;12.40;99.90;;;;;;4869307;29;20909;-87
2021/09/01 02:04:36;;;;;;;14.17;12.73;;;12.30;99.90;;;;;;4937655;29;20552;-87
2021/09/01 02:07:11;;;;;;;13.87;12.47;;;12.40;99.90;;;;;;4937789;29;20542;-87
2021/09/01 02:10:07;;;;;;;15.03;13.60;;;12.30;99.90;;;;;;4937442;29;20968;-87
2021/09/01 02:12:34;;;;;;;14.60;13.20;;;12.30;99.90;;;;;;4937170;29;20488;-86
2021/09/01 02:15:19;;;;;;;14.30;12.80;;;12.20;99.90;;;;;;4937280;29;20532;-87
2021/09/01 02:17:49;;;;;;;13.97;12.50;;;12.20;99.90;;;;;;4937302;29;20761;-86
2021/09/01 02:20:17;;;;;;;17.10;14.23;;;12.20;99.90;;;;;;4936259;29;20503;-87
2021/09/01 02:22:53;;;;;;;14.27;11.30;;;12.20;99.90;;;;;;4936400;29;20515;-87
2021/09/01 02:25:53;;;;;;;14.63;13.17;;;12.20;99.90;;;;;;4937092;29;20948;-87
2021/09/01 02:28:20;;;;;;;15.13;12.77;;;12.20;99.90;;;;;;4937129;29;20460;-87
2021/09/01 02:30:52;;;;;;;12.23;11.00;;;12.20;99.90;;;;;;4936929;29;20553;-87
2021/09/01 02:33:20;;;;;;;15.53;12.57;;;12.20;99.90;;;;;;4936636;29;20526;-87
2021/09/01 02:35:57;;;;;;;16.23;14.53;;;12.20;99.90;;;;;;4937041;29;20476;-87
2021/09/01 02:38:27;;;;;;;15.70;14.03;;;12.20;99.90;;;;;;4937290;29;20477;-87
2021/09/01 02:40:56;;;;;;;15.93;14.13;;;12.20;99.90;;;;;;4937747;29;20504;-86
2021/09/01 02:43:26;;;;;;;13.30;11.93;;;12.20;99.90;;;;;;4936721;29;20535;-87
2021/09/01 02:45:58;;;;;;;12.67;11.23;;;12.20;99.90;;;;;;4937001;29;20472;-86
2021/09/01 02:48:24;;;;;;;15.97;14.20;;;12.20;99.90;;;;;;4936850;29;20477;-87
2021/09/01 02:51:00;;;;;;;13.00;11.70;;;12.20;99.90;;;;;;4936373;29;20548;-87
2021/09/01 02:53:33;;;;;;;14.97;13.17;;;12.20;99.90;;;;;;4936284;29;20467;-86
2021/09/01 02:56:09;;;;;;;16.63;12.27;;;12.10;99.90;;;;;;4936450;29;20512;-86
2021/09/01 02:58:35;;;;;;;16.10;13.80;;;12.10;99.90;;;;;;4936314;29;20452;-86
2021/09/01 03:01:03;;;;;;;17.43;13.87;;;12.00;99.90;;;;;;4936285;29;20487;-87
2021/09/01 03:03:29;;;;;;;14.77;12.70;;;12.00;99.90;;;;;;4935528;29;20524;-86
2021/09/01 03:05:56;;;;;;;18.37;15.30;;;12.00;99.90;;;;;;4936170;29;20515;-86
2021/09/01 03:08:26;;;;;;;15.37;13.67;;;11.90;99.90;;;;;;4935985;29;20515;-87
2021/09/01 03:10:53;;;;;;;16.13;14.43;;;11.90;99.90;;;;;;4935972;29;20492;-87
2021/09/01 03:13:24;;;;;;;18.47;13.90;;;11.90;99.90;;;;;;4935085;29;20500;-86
2021/09/01 03:15:55;;;;;;;14.30;12.50;;;11.90;99.90;;;;;;4935371;29;20849;-87
2021/09/01 03:18:29;;;;;;;16.00;13.90;;;12.00;99.90;;;;;;4935969;29;20555;-86
2021/09/01 03:20:56;;;;;;;18.10;13.17;;;11.90;99.90;;;;;;4935726;29;20465;-86
2021/09/01 03:23:22;;;;;;;12.40;10.70;;;11.90;99.90;;;;;;4935158;29;20558;-86
2021/09/01 03:25:49;;;;;;;15.50;12.73;;;11.90;99.90;;;;;;4935722;29;20940;-86
2021/09/01 03:28:16;;;;;;;15.93;14.10;;;11.90;99.90;;;;;;4935454;29;20500;-86
2021/09/01 03:30:44;;;;;;;15.00;13.03;;;11.90;99.90;;;;;;4935827;29;20486;-86
2021/09/01 03:33:26;;;;;;;14.50;12.57;;;11.90;99.90;;;;;;4935103;29;20501;-86
2021/09/01 03:35:53;;;;;;;15.73;13.73;;;11.90;99.90;;;;;;4935514;29;20448;-86
2021/09/01 03:38:30;;;;;;;;;;;;;;;;;;;;;
2021/09/01 03:40:59;;;;;;;13.57;11.73;;;11.80;99.90;;;;;;4935452;29;20479;-86
2021/09/01 03:43:31;;;;;;;15.63;14.00;;;11.80;99.90;;;;;;4934946;29;20503;-86
2021/09/01 03:46:01;;;;;;;13.17;11.80;;;11.80;99.90;;;;;;4935904;29;20478;-86
2021/09/01 03:48:30;;;;;;;13.83;12.43;;;11.80;99.90;;;;;;4935859;29;20441;-86
2021/09/01 03:51:09;;;;;;;11.30;10.20;;;11.80;99.90;;;;;;4935434;29;20558;-86
2021/09/01 03:53:55;;;;;;;14.80;13.27;;;11.80;99.90;;;;;;4935145;29;20867;-86
2021/09/01 03:56:23;;;;;;;15.27;13.33;;;11.70;99.90;;;;;;4935356;29;20466;-86
2021/09/01 03:59:00;;;;;;;12.93;11.50;;;11.70;99.90;;;;;;4935799;29;20452;-86
2021/09/01 04:01:30;;;;;;;12.67;11.43;;;11.70;99.90;;;;;;4935020;29;20477;-86
2021/09/01 04:04:08;;;;;;;13.47;12.03;;;11.70;99.90;;;;;;4935484;29;20491;-86
2021/09/01 04:06:53;;;;;;;14.67;13.17;;;11.60;99.90;;;;;;4935484;29;20496;-86
2021/09/01 04:09:33;;;;;;;13.40;12.00;;;11.60;99.90;;;;;;4935221;29;20496;-86
2021/09/01 04:12:03;;;;;;;14.90;13.23;;;11.60;99.90;;;;;;4934841;29;20488;-86
2021/09/01 04:17:59;;;;;;;11.80;10.70;;;11.50;99.90;;;;;;4934089;29;20539;-86
2021/09/01 04:20:59;;;;;;;12.60;11.30;;;11.50;99.90;;;;;;4935269;29;20850;-86
2021/09/01 04:23:32;;;;;;;13.60;11.77;;;11.50;99.90;;;;;;4934834;29;20539;-86
2021/09/01 04:26:19;;;;;;;16.40;13.70;;;11.50;99.90;;;;;;4935959;29;20460;-86
2021/09/01 04:28:53;;;;;;;16.03;11.70;;;11.50;99.90;;;;;;4937792;29;20540;-86
2021/09/01 04:31:20;;;;;;;15.10;13.60;;;11.40;99.90;;;;;;4939113;29;20994;-86
2021/09/01 04:34:08;;;;;;;12.93;11.53;;;11.40;99.90;;;;;;4939432;29;20472;-86
2021/09/01 04:46:10;;;;;;;12.03;10.83;;;11.30;99.90;;;;;;4936474;29;20455;-86
2021/09/01 04:52:04;;;;;;;10.10;8.93;;;11.20;99.90;;;;;;4913547;29;20467;-86
2021/09/01 04:55:20;;;;;;;;;;;;;;;;;;;;;
2021/09/01 05:06:45;;;;;;;10.37;9.27;;;11.20;99.90;;;;;;4939338;29;20455;-86
2021/09/01 05:12:12;;;;;;;12.13;10.87;;;11.20;99.90;;;;;;4929468;29;20484;-86
2021/09/01 05:14:48;;;;;;;13.25;10.90;;;11.20;99.90;;;;;;4939385;29;20975;-86
2021/09/01 05:17:28;;;;;;;11.20;8.67;;;11.20;99.90;;;;;;4939199;29;20291;-86
2021/09/01 05:20:09;;;;;;;10.05;9.15;;;11.20;99.90;;;;;;4939168;29;20491;-86
2021/09/01 05:23:14;;;;;;;13.27;9.73;;;11.20;99.90;;;;;;4938225;29;20694;-86
2021/09/01 05:26:21;;;;;;;11.95;9.85;;;11.30;99.90;;;;;;4871196;29;20469;-86
2021/09/01 05:32:08;;;;;;;10.97;9.87;;;11.30;99.90;;;;;;4934634;29;20464;-86
2021/09/01 05:34:43;;;;;;;11.93;9.83;;;11.30;99.90;;;;;;4938748;29;20464;-86
2021/09/01 05:37:24;;;;;;;11.40;9.50;;;11.40;99.90;;;;;;4938541;29;20472;-86
2021/09/01 05:40:35;;;;;;;;;;;;;;;;;;;;;
2021/09/01 05:43:07;;;;;;;11.13;9.67;;;11.50;99.90;;;;;;4910533;29;20488;-86
2021/09/01 05:46:23;;;;;;;13.10;11.80;;;11.50;99.90;;;;;;4938634;29;20819;-86
2021/09/01 06:20:20;;;;;;;30.03;22.70;;;12.20;99.90;;;;;;4812515;29;20456;-87
2021/09/01 06:29:09;;;;;;;27.67;19.00;;;12.30;99.90;;;;;;4863624;29;20482;-84
2021/09/01 06:31:42;;;;;;;32.43;21.77;;;12.30;99.90;;;;;;4936120;29;20480;-84
2021/09/01 06:34:18;;;;;;;30.00;20.87;;;12.40;99.90;;;;;;4936645;29;20900;-84
2021/09/01 06:36:52;;;;;;;30.20;19.90;;;12.50;99.90;;;;;;4936304;29;20543;-84
2021/09/01 06:39:51;;;;;;;32.10;19.80;;;12.60;99.90;;;;;;4936569;29;20948;-85
2021/09/01 06:42:20;;;;;;;29.20;18.83;;;12.70;99.90;;;;;;4982641;23;20503;-83
2021/09/01 06:44:47;;;;;;;24.50;18.27;;;12.80;99.90;;;;;;4956709;29;20478;-84
2021/09/01 06:47:14;;;;;;;22.53;18.10;;;12.90;99.90;;;;;;4951007;29;20443;-83
2021/09/01 06:49:40;;;;;;;24.70;19.73;;;13.10;99.90;;;;;;4955246;29;20458;-84
2021/09/01 06:52:07;;;;;;;30.47;19.20;;;13.20;99.90;;;;;;4935764;29;20484;-84
2021/09/01 06:54:34;;;;;;;25.73;17.30;;;13.40;99.90;;;;;;4931634;29;20453;-84
2021/09/01 06:57:00;;;;;;;33.17;17.57;;;13.50;99.90;;;;;;4930406;29;20567;-84
2021/09/01 06:59:28;;;;;;;24.63;20.63;;;13.60;99.90;;;;;;4930009;29;20442;-84
2021/09/01 07:01:55;;;;;;;25.13;18.07;;;13.70;99.90;;;;;;4939229;29;20462;-83
2021/09/01 07:04:22;;;;;;;19.00;16.90;;;13.70;99.90;;;;;;4945980;29;20496;-82
2021/09/01 07:06:49;;;;;;;19.87;17.70;;;13.80;99.90;;;;;;4944187;29;20449;-82
2021/09/01 07:09:15;;;;;;;23.47;19.63;;;13.90;99.90;;;;;;4931542;29;20454;-83
2021/09/01 07:11:42;;;;;;;19.50;16.30;;;14.00;99.90;;;;;;4921196;29;20478;-83
2021/09/01 07:14:09;;;;;;;18.67;16.70;;;14.10;99.90;;;;;;4921305;29;20832;-84
2021/09/01 07:16:37;;;;;;;26.63;18.50;;;14.20;99.90;;;;;;4931626;29;20450;-82
2021/09/01 07:19:05;;;;;;;22.37;17.90;;;14.30;99.90;;;;;;4936794;29;20457;-83
2021/09/01 07:21:32;;;;;;;23.23;19.30;;;14.30;99.90;;;;;;4938472;29;20476;-84
2021/09/01 07:24:00;;;;;;;21.40;17.47;;;14.40;99.90;;;;;;4940338;29;20497;-83
2021/09/01 07:26:27;;;;;;;23.23;18.13;;;14.50;99.90;;;;;;4940129;29;20876;-83
2021/09/01 07:28:53;;;;;;;23.03;18.00;;;14.60;99.90;;;;;;4939549;29;20457;-83
2021/09/01 07:31:21;;;;;;;20.23;17.07;;;14.70;99.90;;;;;;4940371;29;20469;-81
2021/09/01 07:33:49;;;;;;;20.77;17.83;;;14.60;99.90;;;;;;4943830;29;20488;-83
2021/09/01 07:36:16;;;;;;;18.60;16.60;;;14.60;99.90;;;;;;4942713;29;20454;-83
2021/09/01 07:38:43;;;;;;;16.57;14.87;;;14.70;99.90;;;;;;4942929;29;20449;-83
2021/09/01 07:41:10;;;;;;;15.53;13.90;;;14.70;99.90;;;;;;4941429;29;20488;-83
2021/09/01 07:43:36;;;;;;;13.00;11.70;;;14.70;99.90;;;;;;4940903;29;20496;-83
2021/09/01 07:46:03;;;;;;;14.47;11.23;;;14.70;99.90;;;;;;4942309;29;20461;-83
2021/09/01 07:48:30;;;;;;;15.37;12.07;;;14.70;99.90;;;;;;4942802;29;20460;-83
2021/09/01 07:50:58;;;;;;;14.70;13.07;;;14.70;99.90;;;;;;4942725;29;20477;-83
2021/09/01 07:53:24;;;;;;;13.67;12.27;;;14.70;99.90;;;;;;4941619;29;20953;-83
2021/09/01 07:55:51;;;;;;;15.93;13.23;;;14.70;99.90;;;;;;4942430;29;20453;-83
2021/09/01 07:58:18;;;;;;;15.33;13.37;;;14.70;99.90;;;;;;4942920;29;20968;-83
2021/09/01 08:00:45;;;;;;;16.27;14.60;;;14.70;99.90;;;;;;4942815;29;20484;-83
2021/09/01 08:03:11;;;;;;;14.63;13.20;;;14.70;99.90;;;;;;4941498;29;20493;-83
2021/09/01 08:05:38;;;;;;;16.50;14.67;;;14.80;99.90;;;;;;4942496;29;20454;-83
2021/09/01 08:08:07;;;;;;;13.43;12.10;;;14.80;99.90;;;;;;4942047;29;20457;-83
2021/09/01 08:10:34;;;;;;;18.43;16.53;;;14.90;99.90;;;;;;4942603;29;20457;-83
2021/09/01 08:13:00;;;;;;;17.33;15.13;;;15.00;99.90;;;;;;4941714;29;20457;-83
2021/09/01 08:15:27;;;;;;;17.43;15.17;;;15.00;99.90;;;;;;4942321;29;20449;-83
2021/09/01 08:17:54;;;;;;;20.43;15.10;;;15.10;99.90;;;;;;4942407;29;20462;-83
2021/09/01 08:20:21;;;;;;;16.77;14.50;;;15.10;99.90;;;;;;4941802;29;20453;-83
2021/09/01 08:22:49;;;;;;;16.67;14.90;;;15.20;99.90;;;;;;4940954;29;20449;-83
2021/09/01 08:25:17;;;;;;;18.10;15.37;;;15.20;99.90;;;;;;4942125;29;20462;-83
2021/09/01 08:27:46;;;;;;;19.40;15.00;;;15.30;99.90;;;;;;4942638;29;20454;-83
2021/09/01 08:30:14;;;;;;;16.50;14.80;;;15.40;99.90;;;;;;4943122;29;20455;-83
2021/09/01 08:32:41;;;;;;;16.13;14.43;;;15.50;99.90;;;;;;4941839;29;20540;-83
2021/09/01 08:35:08;;;;;;;17.00;15.20;;;15.60;99.90;;;;;;4941961;29;20453;-83
2021/09/01 08:37:35;;;;;;;15.57;13.90;;;15.70;99.90;;;;;;4942418;29;20492;-83
2021/09/01 08:40:02;;;;;;;19.67;16.37;;;15.80;99.90;;;;;;4942295;29;20836;-83
2021/09/01 08:42:30;;;;;;;15.10;13.60;;;15.80;99.90;;;;;;4940415;29;20843;-82
2021/09/01 08:44:57;;;;;;;17.10;15.27;;;15.90;99.90;;;;;;4942554;29;20489;-82
2021/09/01 08:47:24;;;;;;;15.70;14.20;;;16.00;99.90;;;;;;4942090;29;20496;-82
2021/09/01 08:49:52;;;;;;;17.83;14.67;;;16.10;99.90;;;;;;4942680;29;20457;-82
2021/09/01 08:52:18;;;;;;;17.63;15.73;;;16.20;99.90;;;;;;4941295;29;20859;-83
2021/09/01 08:54:45;;;;;;;14.67;13.10;;;16.20;99.90;;;;;;4941812;29;20460;-84
2021/09/01 08:57:13;;;;;;;14.67;13.27;;;16.30;99.90;;;;;;4942669;29;20846;-82
2021/09/01 08:59:41;;;;;;;18.13;15.90;;;16.40;99.90;;;;;;4941985;29;20457;-85
2021/09/01 09:02:08;;;;;;;12.87;11.57;;;16.40;99.90;;;;;;4940617;29;20485;-85
2021/09/01 09:04:38;;;;;;;14.23;12.73;;;16.50;99.90;;;;;;4941408;29;20486;-84
2021/09/01 09:07:06;;;;;;;13.47;12.07;;;16.60;99.90;;;;;;4940500;29;20463;-84
2021/09/01 09:09:35;;;;;;;14.67;13.17;;;16.70;99.90;;;;;;4940400;29;20517;-84
2021/09/01 09:12:03;;;;;;;14.60;13.37;;;16.80;99.90;;;;;;4939361;29;20481;-84
2021/09/01 09:14:32;;;;;;;13.77;12.50;;;17.00;99.90;;;;;;4942776;29;20461;-84
2021/09/01 09:17:08;;;;;;;14.57;13.17;;;17.10;99.90;;;;;;4944189;29;20462;-83
2021/09/01 09:19:50;;;;;;;12.40;10.77;;;17.30;99.90;;;;;;4943510;29;20504;-84
2021/09/01 09:22:27;;;;;;;12.13;11.03;;;17.30;99.90;;;;;;4943680;29;20484;-84
2021/09/01 09:25:11;;;;;;;13.93;11.60;;;17.50;99.90;;;;;;4944448;29;20588;-84
2021/09/01 09:27:42;;;;;;;11.77;10.40;;;17.70;99.90;;;;;;4945066;29;20824;-84
2021/09/01 09:30:26;;;;;;;10.63;9.67;;;17.80;99.90;;;;;;4943920;29;20823;-84
2021/09/01 09:32:56;;;;;;;10.63;9.60;;;17.90;99.90;;;;;;4943202;29;20452;-84
2021/09/01 09:35:24;;;;;;;9.70;8.70;;;18.10;99.90;;;;;;4944552;29;20446;-85
2021/09/01 09:38:01;;;;;;;8.77;7.87;;;18.20;99.90;;;;;;4944484;29;20444;-84
2021/09/01 09:40:29;;;;;;;9.23;8.50;;;18.40;99.90;;;;;;4941422;29;20511;-84
2021/09/01 09:42:56;;;;;;;9.60;8.77;;;18.50;99.90;;;;;;4943637;29;20513;-85
2021/09/01 09:45:27;;;;;;;8.87;8.07;;;18.70;99.90;;;;;;4941174;29;20519;-84
2021/09/01 09:47:56;;;;;;;9.10;8.30;;;18.80;99.90;;;;;;4944948;29;20662;-84
2021/09/01 09:50:24;;;;;;;7.40;6.70;;;19.00;99.90;;;;;;4943350;29;20464;-84
2021/09/01 09:52:51;;;;;;;7.33;6.63;;;19.10;99.90;;;;;;4942473;29;20453;-84
2021/09/01 09:55:20;;;;;;;7.97;7.27;;;19.30;99.90;;;;;;4941246;29;20471;-84
2021/09/01 09:57:49;;;;;;;7.23;6.37;;;19.50;99.90;;;;;;4943573;29;20830;-84
2021/09/01 10:00:17;;;;;;;7.83;7.13;;;19.70;99.90;;;;;;4940707;29;20675;-84
2021/09/01 10:02:43;;;;;;;7.13;6.43;;;19.90;99.90;;;;;;4941259;29;20945;-84
2021/09/01 10:05:13;;;;;;;7.10;6.40;;;20.10;99.90;;;;;;4940581;29;20497;-84
2021/09/01 10:07:40;;;;;;;7.10;6.50;;;20.10;99.90;;;;;;4942852;29;20461;-84
2021/09/01 10:10:08;;;;;;;5.87;5.40;;;20.40;99.90;;;;;;4944836;29;20476;-84
2021/09/01 10:12:39;;;;;;;7.40;5.33;;;20.50;99.90;;;;;;4942220;29;20521;-85
2021/09/01 10:15:09;;;;;;;5.50;5.00;;;20.70;99.90;;;;;;4944821;29;20464;-82
2021/09/01 10:17:39;;;;;;;6.27;5.63;;;20.80;99.40;;;;;;4941954;29;20456;-83
2021/09/01 10:20:08;;;;;;;6.47;5.47;;;21.00;99.90;;;;;;4940104;29;20456;-84
2021/09/01 10:22:36;;;;;;;5.90;5.30;;;21.20;99.90;;;;;;4938434;29;20485;-84
2021/09/01 10:25:04;;;;;;;7.77;5.73;;;21.30;99.60;;;;;;4941823;29;20583;-84
2021/09/01 10:27:30;;;;;;;5.63;5.23;;;21.40;98.90;;;;;;4938958;29;20460;-84
2021/09/01 10:30:03;;;;;;;5.77;5.37;;;21.40;98.40;;;;;;4939591;29;20466;-84
2021/09/01 10:32:31;;;;;;;5.53;5.03;;;21.50;98.50;;;;;;4939220;29;20482;-84
2021/09/01 10:35:30;;;;;;;5.17;4.87;;;21.70;97.70;;;;;;4939315;29;20971;-84
2021/09/01 10:38:04;;;;;;;5.70;5.20;;;21.80;97.10;;;;;;4941281;29;20538;-84
2021/09/01 10:41:04;;;;;;;5.00;4.60;;;21.50;96.00;;;;;;4941131;29;20458;-85
2021/09/01 10:43:31;;;;;;;5.27;4.80;;;21.60;96.90;;;;;;4939138;29;21026;-84
2021/09/01 10:45:58;;;;;;;6.07;5.57;;;21.70;96.10;;;;;;4939919;29;20502;-85
2021/09/01 10:48:25;;;;;;;5.60;4.40;;;21.90;95.40;;;;;;4940819;29;20454;-85
2021/09/01 10:50:52;;;;;;;5.63;5.20;;;22.00;96.40;;;;;;4940994;29;20471;-85
2021/09/01 10:53:23;;;;;;;6.07;5.50;;;22.00;95.40;;;;;;4942441;29;20464;-84
2021/09/01 10:55:56;;;;;;;5.93;4.93;;;22.30;95.30;;;;;;4941915;29;20448;-85
2021/09/01 10:58:25;;;;;;;6.00;5.53;;;22.50;97.00;;;;;;4942424;29;20462;-84
2021/09/01 11:00:55;;;;;;;5.37;4.87;;;22.80;97.00;;;;;;4940548;29;20480;-85
2021/09/01 11:03:36;;;;;;;5.20;4.80;;;23.00;96.90;;;;;;4940998;29;20465;-85
2021/09/01 11:06:25;;;;;;;5.73;5.23;;;23.30;96.00;;;;;;4944192;29;20485;-85
2021/09/01 11:09:12;;;;;;;5.90;5.30;;;23.50;94.80;;;;;;4944505;29;20453;-85
2021/09/01 11:11:45;;;;;;;6.13;5.57;;;23.70;93.60;;;;;;4944177;29;20586;-85
2021/09/01 11:14:14;;;;;;;5.17;4.67;;;24.00;93.40;;;;;;4944165;29;20540;-84
2021/09/01 11:16:41;;;;;;;7.17;6.57;;;24.10;92.80;;;;;;4939764;29;20453;-85
2021/09/01 11:19:09;;;;;;;5.93;5.43;;;24.10;93.00;;;;;;4941978;29;20457;-85
2021/09/01 11:21:41;;;;;;;5.90;5.30;;;24.30;92.70;;;;;;4943271;29;20479;-85
2021/09/01 11:24:09;;;;;;;6.43;5.83;;;24.40;92.10;;;;;;4944692;29;20496;-82
2021/09/01 11:26:38;;;;;;;6.20;5.77;;;24.60;92.10;;;;;;4944282;29;20505;-85
2021/09/01 11:29:07;;;;;;;4.90;4.50;;;25.20;92.90;;;;;;4944434;29;20465;-85
2021/09/01 11:31:42;;;;;;;5.43;5.03;;;26.10;91.30;;;;;;4944390;29;20487;-85
2021/09/01 11:34:10;;;;;;;7.33;5.00;;;26.90;86.40;;;;;;4945885;29;20551;-84
2021/09/01 11:36:36;;;;;;;6.53;4.77;;;27.50;85.50;;;;;;4943059;29;20466;-85
2021/09/01 11:39:03;;;;;;;5.40;5.00;;;27.50;82.80;;;;;;4943204;29;20454;-85
2021/09/01 11:41:30;;;;;;;5.17;4.70;;;27.40;82.60;;;;;;4944013;29;20492;-84
2021/09/01 11:44:00;;;;;;;5.57;5.17;;;27.10;81.80;;;;;;4943552;29;20475;-83
2021/09/01 11:46:31;;;;;;;4.60;4.27;;;26.90;81.90;;;;;;4945289;29;20465;-83
2021/09/01 11:49:03;;;;;;;6.03;5.53;;;26.80;81.00;;;;;;4945009;29;20493;-85
2021/09/01 11:51:30;;;;;;;6.07;5.57;;;26.70;81.00;;;;;;4944236;29;20476;-84
2021/09/01 11:53:59;;;;;;;6.37;5.87;;;26.60;83.50;;;;;;4944081;29;20456;-85
2021/09/01 11:56:26;;;;;;;6.47;5.97;;;26.20;82.50;;;;;;4944530;29;20458;-85
2021/09/01 11:59:05;;;;;;;5.67;5.17;;;26.10;84.30;;;;;;4944819;29;20466;-85
2021/09/01 12:01:33;;;;;;;5.90;5.40;;;26.20;85.80;;;;;;4944133;29;20516;-83
2021/09/01 12:04:01;;;;;;;5.63;5.23;;;26.20;86.20;;;;;;4945016;29;20467;-82
2021/09/01 12:06:39;;;;;;;6.67;6.10;;;26.30;86.40;;;;;;4945062;29;20456;-83
2021/09/01 12:09:10;;;;;;;6.00;4.93;;;26.40;86.40;;;;;;4943770;29;20470;-85
2021/09/01 12:11:37;;;;;;;4.60;4.20;;;26.60;82.10;;;;;;4943867;29;20485;-85
2021/09/01 12:14:07;;;;;;;4.80;4.40;;;27.30;84.10;;;;;;4945272;29;20922;-85
2021/09/01 12:16:35;;;;;;;5.10;4.60;;;28.40;81.80;;;;;;4945954;29;20460;-85
2021/09/01 12:19:09;;;;;;;5.80;4.40;;;29.40;79.90;;;;;;4946707;29;20458;-83
2021/09/01 12:21:45;;;;;;;5.40;5.00;;;30.40;77.50;;;;;;4946866;29;20474;-83
2021/09/01 12:24:12;;;;;;;5.70;5.10;;;31.20;70.10;;;;;;4946587;29;20462;-83
2021/09/01 12:26:49;;;;;;;4.63;4.23;;;32.00;72.10;;;;;;4949573;29;20461;-83
2021/09/01 12:29:37;;;;;;;4.90;4.60;;;32.40;65.00;;;;;;4952031;29;20465;-83
2021/09/01 12:32:06;;;;;;;4.70;4.40;;;32.50;61.30;;;;;;4951390;29;20462;-83
2021/09/01 12:34:36;;;;;;;5.17;4.77;;;32.50;60.90;;;;;;4949413;29;20456;-83
2021/09/01 12:37:09;;;;;;;4.97;4.50;;;32.50;59.70;;;;;;4947084;29;20880;-83
2021/09/01 12:39:53;;;;;;;6.10;4.90;;;31.80;58.30;;;;;;4946038;29;20453;-83
2021/09/01 15:01:10;;;;;;;4.40;4.07;;;27.80;57.00;;;;;;4722843;30;20526;-83
2021/09/01 15:03:36;;;;;;;6.20;4.70;;;27.50;57.50;;;;;;4769692;29;20468;-83
2021/09/01 15:06:03;;;;;;;5.70;5.20;;;27.60;58.30;;;;;;4816153;29;20995;-83
2021/09/01 15:08:30;;;;;;;5.20;4.80;;;27.90;58.50;;;;;;4823034;29;20464;-83
2021/09/01 15:10:56;;;;;;;6.53;3.40;;;28.30;56.60;;;;;;4823030;29;20485;-83
2021/09/01 15:13:23;;;;;;;5.50;5.00;;;28.60;56.90;;;;;;4825860;29;20465;-83
2021/09/01 15:15:50;;;;;;;4.77;4.37;;;28.90;56.60;;;;;;4848647;29;20500;-83
2021/09/01 15:18:19;;;;;;;4.27;3.97;;;29.10;56.50;;;;;;4878124;29;20465;-83
2021/09/01 15:20:47;;;;;;;4.53;4.20;;;29.10;55.70;;;;;;4877815;29;20474;-83
2021/09/01 15:23:13;;;;;;;4.80;4.40;;;28.90;55.60;;;;;;4877760;29;20469;-83
2021/09/01 15:25:40;;;;;;;4.50;4.13;;;28.60;54.70;;;;;;4877790;29;20459;-83
2021/09/01 15:28:07;;;;;;;4.00;3.70;;;28.20;55.50;;;;;;4878408;29;20457;-82
2021/09/01 15:30:34;;;;;;;4.17;3.87;;;27.80;55.50;;;;;;4879086;29;20461;-83
2021/09/01 15:33:01;;;;;;;4.93;4.43;;;27.40;55.60;;;;;;4880234;29;20472;-83
2021/09/01 15:35:30;;;;;;;4.50;4.20;;;26.80;56.60;;;;;;4939962;29;20497;-82
2021/09/01 15:37:56;;;;;;;5.27;4.80;;;26.00;56.90;;;;;;4956538;28;20458;-83
2021/09/01 15:40:23;;;;;;;4.13;3.80;;;25.90;59.10;;;;;;4957371;29;20450;-82
2021/09/01 15:42:51;;;;;;;4.20;3.80;;;26.00;59.90;;;;;;4964952;28;20476;-83
2021/09/01 15:45:20;;;;;;;4.40;3.97;;;26.10;60.00;;;;;;4978467;28;20810;-82
2021/09/01 15:47:51;;;;;;;3.90;3.60;;;26.30;59.80;;;;;;4987599;28;20459;-83
2021/09/01 15:50:20;;;;;;;5.00;4.60;;;26.30;59.20;;;;;;4985526;28;20461;-84
2021/09/01 15:52:49;;;;;;;5.27;4.83;;;26.50;59.80;;;;;;4960273;28;20480;-83
2021/09/01 15:55:15;;;;;;;4.43;4.13;;;26.70;57.50;;;;;;4962166;28;20496;-84
2021/09/01 15:57:43;;;;;;;3.97;3.67;;;27.00;56.90;;;;;;4970952;29;20466;-84
2021/09/01 16:00:11;;;;;;;5.07;4.73;;;27.20;57.60;;;;;;4968398;28;20453;-83
2021/09/01 16:02:39;;;;;;;4.73;4.33;;;27.30;57.90;;;;;;4967565;28;20478;-84
2021/09/01 16:05:07;;;;;;;4.47;4.07;;;27.50;58.10;;;;;;4972264;29;20436;-84
2021/09/01 16:07:34;;;;;;;3.87;3.50;;;27.60;58.50;;;;;;4972330;29;20454;-84
2021/09/01 16:10:02;;;;;;;3.90;3.60;;;27.90;58.50;;;;;;4969345;28;20458;-83
2021/09/01 16:12:35;;;;;;;4.53;4.13;;;28.00;58.10;;;;;;4968647;28;20494;-83
2021/09/01 16:15:06;;;;;;;4.97;4.57;;;27.90;57.00;;;;;;4971111;29;20458;-83
2021/09/01 16:17:43;;;;;;;4.50;4.10;;;27.70;57.30;;;;;;4973204;29;20526;-84
2021/09/01 16:20:11;;;;;;;4.37;4.00;;;27.60;57.90;;;;;;4972720;28;20440;-85
2021/09/01 16:22:45;;;;;;;4.17;3.87;;;27.20;57.60;;;;;;4972206;28;20469;-86
2021/09/01 16:25:15;;;;;;;4.67;4.27;;;27.00;58.40;;;;;;4976418;28;20547;-84
2021/09/01 16:27:43;;;;;;;4.10;3.70;;;26.80;59.50;;;;;;4978251;29;20454;-86
2021/09/01 16:30:12;;;;;;;5.33;4.93;;;26.70;59.40;;;;;;4979131;29;20449;-86
2021/09/01 16:32:39;;;;;;;5.40;5.00;;;26.60;59.70;;;;;;4971759;29;21004;-84
2021/09/01 16:35:09;;;;;;;4.00;3.70;;;26.50;59.50;;;;;;4978222;28;20474;-85
2021/09/01 16:37:45;;;;;;;4.07;3.70;;;26.60;60.10;;;;;;4974909;29;20519;-81
2021/09/01 16:40:14;;;;;;;4.90;4.30;;;26.60;60.00;;;;;;4967452;29;20502;-82
2021/09/01 16:42:42;;;;;;;4.97;4.57;;;26.50;59.50;;;;;;4967788;29;20470;-84
2021/09/01 16:45:10;;;;;;;4.53;4.23;;;26.40;59.20;;;;;;4964512;28;20551;-86
2021/09/01 16:47:37;;;;;;;3.87;3.60;;;26.20;59.20;;;;;;4961823;29;20466;-86
2021/09/01 16:50:05;;;;;;;5.70;5.20;;;26.10;59.90;;;;;;4964354;28;20524;-86
2021/09/01 16:52:33;;;;;;;4.20;3.90;;;26.00;60.60;;;;;;4961282;28;20478;-87
2021/09/01 16:55:05;;;;;;;4.70;4.17;;;26.00;60.80;;;;;;4968211;28;20465;-87
2021/09/01 16:57:49;;;;;;;5.10;4.60;;;25.80;60.70;;;;;;4962951;29;20474;-87
2021/09/01 17:00:17;;;;;;;4.53;4.23;;;25.70;62.50;;;;;;4961405;29;20958;-88
2021/09/01 17:02:47;;;;;;;4.97;4.57;;;25.60;62.80;;;;;;4961967;28;20489;-87
2021/09/01 17:05:14;;;;;;;3.77;3.47;;;25.30;62.70;;;;;;4961990;28;20463;-88
2021/09/01 17:07:44;;;;;;;4.90;4.50;;;25.10;63.90;;;;;;4958168;28;20459;-87
2021/09/01 17:10:11;;;;;;;5.17;4.70;;;24.80;64.60;;;;;;4959591;29;20952;-86
2021/09/01 17:12:39;;;;;;;4.60;4.10;;;24.50;66.00;;;;;;4969898;28;20480;-86
2021/09/01 17:15:18;;;;;;;6.00;4.27;;;24.30;66.30;;;;;;4967006;28;20558;-87
2021/09/01 17:18:55;;;;;;;3.93;3.73;;;24.00;67.30;;;;;;4962304;28;20506;-87
2021/09/01 17:21:23;;;;;;;4.53;3.87;;;23.70;67.80;;;;;;4777050;30;20573;-85
2021/09/01 17:31:23;;;;;;;4.30;4.00;;;23.90;69.50;;;;;;4859447;29;20964;-86
2021/09/01 17:33:53;;;;;;;4.57;4.23;;;24.20;68.90;;;;;;4899897;29;20567;-85
2021/09/01 17:36:22;;;;;;;6.00;5.50;;;24.30;67.30;;;;;;4970988;28;20937;-86